createdAt,value
2019-04-14T00:02:40.448Z,63.60
2019-04-14T00:05:15.071Z,62.70
2019-04-14T00:07:47.066Z,62.30
2019-04-14T00:10:20.385Z,62.00
2019-04-14T00:12:51.783Z,61.00
2019-04-14T00:15:30.972Z,61.20
2019-04-14T00:17:56.709Z,61.00
2019-04-14T00:20:29.329Z,60.10
2019-04-14T00:23:00.543Z,59.80
2019-04-14T00:25:32.792Z,59.80
2019-04-14T00:28:05.121Z,59.70
2019-04-14T00:30:36.712Z,59.40
2019-04-14T00:33:10.549Z,59.20
2019-04-14T00:35:53.879Z,59.30
2019-04-14T00:38:28.436Z,59.70
2019-04-14T00:41:32.994Z,59.40
2019-04-14T00:44:03.580Z,59.20
2019-04-14T00:46:41.489Z,58.90
2019-04-14T00:49:13.601Z,58.90
2019-04-14T00:51:46.005Z,58.90
2019-04-14T00:54:19.536Z,59.10
2019-04-14T00:56:51.940Z,58.90
2019-04-14T00:59:23.133Z,58.80
2019-04-14T01:01:54.798Z,58.90
2019-04-14T01:04:25.787Z,58.90
2019-04-14T01:06:57.669Z,58.90
2019-04-14T01:09:28.947Z,58.90
2019-04-14T01:12:01.691Z,58.60
2019-04-14T01:14:34.189Z,58.80
2019-04-14T01:17:06.845Z,59.00
2019-04-14T01:19:38.087Z,59.20
2019-04-14T01:22:09.524Z,59.10
2019-04-14T01:24:40.768Z,59.20
2019-04-14T01:27:12.473Z,59.10
2019-04-14T01:29:44.817Z,59.30
2019-04-14T01:32:16.199Z,59.20
2019-04-14T01:34:47.658Z,59.40
2019-04-14T01:37:20.127Z,59.50
2019-04-14T01:39:52.394Z,59.70
2019-04-14T01:42:24.568Z,59.70
2019-04-14T01:44:57.011Z,59.90
2019-04-14T01:47:29.204Z,59.80
2019-04-14T01:50:01.778Z,60.00
2019-04-14T01:52:45.785Z,60.10
2019-04-14T01:55:28.857Z,60.20
2019-04-14T01:58:31.758Z,60.30
2019-04-14T02:01:15.303Z,61.20
2019-04-14T02:03:47.645Z,60.60
2019-04-14T02:06:20.084Z,60.80
2019-04-14T02:08:52.186Z,61.70
2019-04-14T02:11:24.686Z,61.00
2019-04-14T02:13:57.886Z,61.30
2019-04-14T02:16:37.949Z,61.30
2019-04-14T02:19:02.458Z,61.50
2019-04-14T02:21:34.560Z,61.60
2019-04-14T02:24:07.021Z,62.10
2019-04-14T02:26:39.435Z,62.30
2019-04-14T02:29:12.052Z,62.10
2019-04-14T02:32:13.881Z,62.10
2019-04-14T02:34:53.625Z,62.20
2019-04-14T02:37:21.231Z,62.60
2019-04-14T02:40:20.827Z,62.70
2019-04-14T02:50:05.447Z,63.20
2019-04-14T02:52:46.611Z,63.40
2019-04-14T03:00:23.940Z,63.70
2019-04-14T03:05:19.620Z,63.40
2019-04-14T03:07:59.973Z,63.40
2019-04-14T03:13:05.640Z,63.50
2019-04-14T03:21:19.781Z,64.20
2019-04-14T03:24:09.390Z,63.40
2019-04-14T03:27:04.553Z,63.40
2019-04-14T03:32:32.316Z,63.80
2019-04-14T03:34:55.197Z,64.00
2019-04-14T03:37:38.718Z,64.00
2019-04-14T03:42:28.703Z,64.30
2019-04-14T03:45:16.205Z,64.40
2019-04-14T03:47:31.498Z,64.50
2019-04-14T03:52:46.006Z,64.60
2019-04-14T03:55:01.055Z,64.70
2019-04-14T03:57:17.166Z,64.80
2019-04-14T03:59:49.888Z,64.90
2019-04-14T04:02:22.532Z,65.00
2019-04-14T04:04:53.818Z,65.00
2019-04-14T04:07:25.685Z,65.00
2019-04-14T04:10:03.028Z,65.90
2019-04-14T04:12:34.244Z,65.10
2019-04-14T04:15:08.279Z,65.00
2019-04-14T04:17:58.654Z,65.10
2019-04-14T04:20:47.719Z,65.00
2019-04-14T04:23:36.526Z,64.80
2019-04-14T04:26:42.950Z,64.60
2019-04-14T04:29:37.434Z,64.50
2019-04-14T04:32:16.492Z,64.30
2019-04-14T04:35:19.650Z,64.00
2019-04-14T04:37:56.916Z,63.50
2019-04-14T04:40:31.187Z,62.80
2019-04-14T04:43:03.718Z,62.70
2019-04-14T04:45:35.163Z,62.60
2019-04-14T04:48:06.710Z,62.60
2019-04-14T04:50:38.858Z,62.10
2019-04-14T04:53:10.069Z,61.80
2019-04-14T04:55:41.682Z,59.80
2019-04-14T04:58:12.815Z,59.30
2019-04-14T05:00:46.943Z,59.20
2019-04-14T05:03:17.016Z,58.80
2019-04-14T05:06:50.547Z,57.80
2019-04-14T05:09:40.497Z,58.00
2019-04-14T05:12:17.664Z,57.50
2019-04-14T05:14:54.489Z,57.30
2019-04-14T05:17:27.620Z,57.20
2019-04-14T05:19:59.280Z,57.30
2019-04-14T05:22:31.099Z,57.30
2019-04-14T05:25:03.509Z,56.70
2019-04-14T05:27:36.549Z,56.60
2019-04-14T05:30:09.048Z,56.80
2019-04-14T05:32:41.317Z,56.70
2019-04-14T05:35:14.013Z,56.60
2019-04-14T05:37:46.481Z,56.50
2019-04-14T05:40:18.794Z,56.10
2019-04-14T05:42:51.509Z,56.00
2019-04-14T05:45:24.008Z,55.30
2019-04-14T05:47:56.407Z,55.50
2019-04-14T05:50:27.662Z,55.80
2019-04-14T05:52:59.947Z,55.60
2019-04-14T05:55:32.684Z,55.20
2019-04-14T05:58:05.618Z,54.80
2019-04-14T06:00:38.584Z,54.60
2019-04-14T06:03:10.920Z,54.50
2019-04-14T06:05:42.849Z,54.00
2019-04-14T06:08:14.392Z,54.40
2019-04-14T06:10:45.617Z,54.00
2019-04-14T06:13:16.946Z,53.50
2019-04-14T06:15:48.136Z,53.00
2019-04-14T06:18:19.318Z,53.10
2019-04-14T06:20:50.574Z,53.30
2019-04-14T06:23:21.646Z,53.40
2019-04-14T06:25:52.935Z,53.60
2019-04-14T06:28:24.802Z,53.00
2019-04-14T06:31:15.473Z,53.20
2019-04-14T06:34:00.363Z,53.10
2019-04-14T06:36:59.584Z,52.70
2019-04-14T06:39:36.372Z,52.30
2019-04-14T06:42:08.744Z,52.20
2019-04-14T06:44:40.138Z,51.50
2019-04-14T06:47:11.531Z,51.00
2019-04-14T06:49:48.775Z,50.30
2019-04-14T06:52:20.520Z,50.30
2019-04-14T06:54:51.976Z,50.20
2019-04-14T06:57:23.045Z,48.70
2019-04-14T06:59:54.325Z,49.20
2019-04-14T07:02:25.573Z,49.30
2019-04-14T07:04:58.170Z,48.40
2019-04-14T07:07:30.071Z,48.20
2019-04-14T07:10:02.126Z,47.80
2019-04-14T07:12:33.447Z,46.90
2019-04-14T07:15:06.840Z,47.10
2019-04-14T07:17:40.293Z,46.80
2019-04-14T07:20:12.072Z,45.70
2019-04-14T07:22:43.584Z,45.60
2019-04-14T07:25:14.964Z,46.50
2019-04-14T07:27:46.492Z,45.30
2019-04-14T07:30:48.653Z,45.50
2019-04-14T07:33:37.143Z,45.80
2019-04-14T07:36:29.214Z,44.40
2019-04-14T07:39:18.998Z,45.60
2019-04-14T07:41:55.862Z,44.10
2019-04-14T07:44:33.265Z,44.90
2019-04-14T07:47:21.126Z,43.00
2019-04-14T07:50:16.648Z,43.90
2019-04-14T07:53:05.530Z,42.60
2019-04-14T07:55:46.625Z,42.50
2019-04-14T07:58:46.191Z,40.50
2019-04-14T08:01:21.427Z,41.00
2019-04-14T08:04:13.064Z,41.20
2019-04-14T08:06:49.025Z,40.10
2019-04-14T08:09:20.243Z,40.80
2019-04-14T08:11:51.414Z,40.10
2019-04-14T08:14:22.612Z,39.60
2019-04-14T08:16:54.076Z,38.10
2019-04-14T08:19:25.456Z,39.30
2019-04-14T08:21:56.685Z,38.90
2019-04-14T08:24:27.778Z,38.80
2019-04-14T08:26:59.374Z,38.50
2019-04-14T08:29:30.598Z,38.10
2019-04-14T08:32:01.613Z,37.00
2019-04-14T08:34:32.818Z,36.50
2019-04-14T08:37:03.884Z,36.80
2019-04-14T08:39:36.430Z,37.80
2019-04-14T08:42:29.576Z,36.50
2019-04-14T08:45:06.367Z,36.20
2019-04-14T08:47:56.705Z,36.20
2019-04-14T08:51:05.130Z,36.60
2019-04-14T08:57:27.128Z,34.80
2019-04-14T09:00:07.731Z,32.70
2019-04-14T09:03:11.670Z,33.40
2019-04-14T09:06:04.537Z,33.10
2019-04-14T09:08:40.694Z,32.70
2019-04-14T09:11:12.353Z,31.50
2019-04-14T09:13:43.742Z,32.80
2019-04-14T09:16:15.261Z,33.30
2019-04-14T09:18:49.645Z,30.50
2019-04-14T09:21:21.719Z,30.10
2019-04-14T09:23:52.892Z,29.40
2019-04-14T09:26:25.141Z,29.60
2019-04-14T09:28:56.547Z,29.70
2019-04-14T09:31:27.717Z,30.10
2019-04-14T09:33:59.311Z,29.60
2019-04-14T09:36:30.359Z,29.60
2019-04-14T09:39:01.401Z,29.70
2019-04-14T09:41:34.275Z,30.30
2019-04-14T09:44:05.775Z,30.00
2019-04-14T09:46:37.043Z,30.90
2019-04-14T09:49:08.349Z,31.30
2019-04-14T09:51:40.036Z,30.90
2019-04-14T09:54:12.018Z,29.90
2019-04-14T09:56:43.935Z,30.60
2019-04-14T09:59:15.469Z,30.20
2019-04-14T10:01:47.244Z,30.70
2019-04-14T10:04:19.153Z,30.40
2019-04-14T10:06:52.460Z,30.20
2019-04-14T10:09:24.279Z,29.30
2019-04-14T10:11:56.517Z,29.70
2019-04-14T10:14:28.040Z,29.30
2019-04-14T10:17:01.315Z,27.80
2019-04-14T10:19:32.445Z,28.50
2019-04-14T10:22:03.776Z,28.60
2019-04-14T10:24:35.104Z,29.40
2019-04-14T10:27:06.827Z,28.10
2019-04-14T10:29:37.982Z,28.00
2019-04-14T10:32:09.451Z,28.30
2019-04-14T10:34:40.662Z,27.80
2019-04-14T10:37:12.055Z,27.20
2019-04-14T10:39:43.396Z,26.60
2019-04-14T10:42:14.898Z,26.20
2019-04-14T10:44:45.989Z,26.00
2019-04-14T10:47:17.293Z,26.30
2019-04-14T10:49:48.604Z,26.30
2019-04-14T10:52:20.196Z,24.30
2019-04-14T10:54:51.409Z,24.60
2019-04-14T10:57:23.742Z,23.50
2019-04-14T10:59:55.523Z,24.40
2019-04-14T11:02:26.829Z,24.10
2019-04-14T11:04:58.625Z,24.20
2019-04-14T11:07:31.478Z,24.20
2019-04-14T11:10:05.768Z,23.00
2019-04-14T11:12:37.141Z,23.70
2019-04-14T11:15:09.326Z,24.00
2019-04-14T11:17:40.683Z,24.40
2019-04-14T11:20:12.471Z,24.20
2019-04-14T11:22:43.943Z,23.70
2019-04-14T11:25:15.746Z,23.00
2019-04-14T11:27:47.034Z,21.00
2019-04-14T11:30:21.017Z,20.60
2019-04-14T11:33:17.066Z,21.10
2019-04-14T11:35:57.156Z,20.70
2019-04-14T11:38:32.301Z,21.30
2019-04-14T11:41:07.087Z,21.40
2019-04-14T11:43:38.248Z,21.50
2019-04-14T11:46:09.688Z,20.80
2019-04-14T11:48:40.735Z,21.00
2019-04-14T11:51:12.559Z,21.50
2019-04-14T11:53:43.681Z,21.60
2019-04-14T11:56:15.732Z,21.40
2019-04-14T11:58:46.897Z,20.70
2019-04-14T12:01:44.510Z,20.60
2019-04-14T12:04:37.951Z,21.20
2019-04-14T12:07:20.109Z,21.00
2019-04-14T12:10:10.087Z,20.70
2019-04-14T12:12:41.373Z,20.00
2019-04-14T12:15:16.567Z,21.00
2019-04-14T12:17:45.436Z,20.90
2019-04-14T12:20:27.014Z,21.10
2019-04-14T12:22:58.487Z,21.90
2019-04-14T12:25:33.619Z,23.10
2019-04-14T12:28:05.241Z,21.30
2019-04-14T12:30:37.665Z,20.70
2019-04-14T12:33:09.166Z,22.00
2019-04-14T12:35:41.000Z,22.40
2019-04-14T12:38:14.037Z,21.70
2019-04-14T12:40:45.536Z,22.00
2019-04-14T12:43:44.626Z,21.70
2019-04-14T12:46:53.064Z,21.80
2019-04-14T12:49:31.433Z,21.80
2019-04-14T12:52:36.368Z,22.80
2019-04-14T12:55:08.380Z,23.20
2019-04-14T12:57:50.720Z,22.50
2019-04-14T13:00:40.462Z,21.70
2019-04-14T13:03:11.912Z,22.50
2019-04-14T13:05:43.296Z,22.00
2019-04-14T13:08:14.924Z,22.50
2019-04-14T13:10:47.447Z,22.20
2019-04-14T13:13:18.918Z,22.20
2019-04-14T13:15:50.247Z,22.90
2019-04-14T13:18:22.666Z,23.10
2019-04-14T13:20:53.927Z,23.80
2019-04-14T13:23:25.121Z,24.00
2019-04-14T13:25:56.508Z,24.10
2019-04-14T13:28:27.932Z,23.40
2019-04-14T13:30:59.655Z,23.30
2019-04-14T13:33:31.105Z,22.00
2019-04-14T13:36:25.710Z,23.30
2019-04-14T13:39:00.504Z,23.20
2019-04-14T13:41:33.545Z,22.70
2019-04-14T13:44:04.854Z,22.90
2019-04-14T13:46:36.327Z,22.40
2019-04-14T13:49:07.651Z,22.60
2019-04-14T13:51:40.734Z,22.70
2019-04-14T13:54:11.888Z,22.20
2019-04-14T13:56:43.141Z,22.20
2019-04-14T13:59:14.696Z,22.50
2019-04-14T14:01:46.121Z,21.90
2019-04-14T14:04:17.620Z,21.80
2019-04-14T14:06:48.971Z,21.40
2019-04-14T14:09:20.377Z,21.40
2019-04-14T14:12:16.515Z,21.40
2019-04-14T14:14:55.489Z,21.40
2019-04-14T14:17:54.877Z,20.60
2019-04-14T14:20:33.851Z,20.60
2019-04-14T14:23:24.010Z,20.00
2019-04-14T14:26:00.411Z,19.50
2019-04-14T14:28:31.666Z,19.80
2019-04-14T14:31:02.747Z,19.80
2019-04-14T14:33:34.200Z,19.70
2019-04-14T14:36:10.333Z,20.80
2019-04-14T14:38:41.739Z,21.70
2019-04-14T14:41:15.633Z,22.40
2019-04-14T14:43:46.889Z,23.00
2019-04-14T14:46:50.347Z,22.30
2019-04-14T14:49:46.341Z,22.10
2019-04-14T14:52:19.276Z,22.50
2019-04-14T14:54:51.689Z,23.20
2019-04-14T14:57:22.764Z,22.90
2019-04-14T14:59:53.871Z,23.10
2019-04-14T15:02:25.142Z,22.40
2019-04-14T15:04:56.781Z,22.10
2019-04-14T15:07:28.029Z,22.10
2019-04-14T15:09:59.280Z,22.30
2019-04-14T15:12:30.700Z,22.20
2019-04-14T15:15:01.857Z,22.20
2019-04-14T15:17:33.096Z,23.30
2019-04-14T15:20:04.621Z,24.00
2019-04-14T15:22:38.574Z,24.10
2019-04-14T15:25:10.488Z,25.00
2019-04-14T15:27:41.985Z,25.90
2019-04-14T15:30:18.978Z,26.60
2019-04-14T15:32:50.961Z,26.30
2019-04-14T15:35:22.651Z,26.60
2019-04-14T15:37:54.775Z,27.70
2019-04-14T15:40:26.602Z,28.70
2019-04-14T15:42:57.987Z,29.80
2019-04-14T15:45:29.192Z,30.40
2019-04-14T15:48:01.040Z,31.00
2019-04-14T15:50:32.947Z,31.50
2019-04-14T15:53:05.122Z,31.80
2019-04-14T15:55:36.841Z,30.90
2019-04-14T15:58:19.930Z,30.60
2019-04-14T16:01:12.783Z,30.10
2019-04-14T16:04:15.438Z,30.20
2019-04-14T16:07:18.169Z,30.40
2019-04-14T16:10:07.762Z,29.50
2019-04-14T16:12:52.076Z,29.20
2019-04-14T16:15:38.970Z,29.20
2019-04-14T16:18:48.891Z,28.60
2019-04-14T16:21:34.739Z,28.30
2019-04-14T16:24:08.036Z,29.10
2019-04-14T16:27:13.319Z,29.30
2019-04-14T16:30:09.341Z,29.40
2019-04-14T16:33:05.833Z,29.90
2019-04-14T16:35:37.078Z,29.80
2019-04-14T16:38:09.418Z,30.90
2019-04-14T16:40:41.073Z,32.00
2019-04-14T16:43:12.392Z,33.90
2019-04-14T16:45:43.413Z,36.50
2019-04-14T16:48:14.501Z,38.20
2019-04-14T16:50:45.424Z,39.80
2019-04-14T16:53:29.182Z,40.60
2019-04-14T16:56:22.190Z,41.30
2019-04-14T16:58:59.230Z,42.30
2019-04-14T17:01:42.073Z,43.00
2019-04-14T17:04:14.054Z,43.20
2019-04-14T17:06:46.037Z,43.90
2019-04-14T17:09:17.446Z,44.30
2019-04-14T17:11:49.195Z,44.60
2019-04-14T17:14:28.424Z,45.20
2019-04-14T17:17:16.957Z,45.60
2019-04-14T17:19:57.176Z,46.20
2019-04-14T17:22:54.318Z,46.50
2019-04-14T17:25:34.208Z,46.80
2019-04-14T17:28:13.009Z,47.50
2019-04-14T17:31:02.418Z,47.90
2019-04-14T17:33:56.087Z,48.40
2019-04-14T17:36:33.546Z,49.00
2019-04-14T17:39:13.498Z,49.30
2019-04-14T17:41:53.337Z,49.70
2019-04-14T17:44:36.668Z,49.90
2019-04-14T17:47:33.210Z,50.10
2019-04-14T17:50:23.690Z,50.00
2019-04-14T17:53:14.272Z,50.90
2019-04-14T17:56:05.049Z,50.80
2019-04-14T17:58:45.068Z,51.40
2019-04-14T18:01:35.046Z,51.50
2019-04-14T18:04:10.924Z,51.70
2019-04-14T18:06:52.540Z,51.80
2019-04-14T18:09:29.518Z,51.90
2019-04-14T18:12:26.318Z,52.10
2019-04-14T18:15:25.751Z,52.50
2019-04-14T18:18:25.260Z,52.90
2019-04-14T18:20:59.029Z,53.20
2019-04-14T18:23:30.852Z,53.40
2019-04-14T18:26:02.372Z,53.40
2019-04-14T18:28:51.157Z,53.60
2019-04-14T18:31:30.124Z,53.60
2019-04-14T18:34:23.597Z,53.80
2019-04-14T18:37:01.677Z,53.80
2019-04-14T18:39:50.342Z,54.00
2019-04-14T18:42:38.331Z,54.20
2019-04-14T18:45:24.710Z,54.50
2019-04-14T18:48:17.608Z,54.80
2019-04-14T18:51:13.699Z,54.60
2019-04-14T18:54:02.804Z,54.60
2019-04-14T18:56:45.730Z,54.70
2019-04-14T18:59:48.141Z,54.90
2019-04-14T19:02:20.833Z,55.30
2019-04-14T19:04:52.012Z,55.00
2019-04-14T19:07:23.270Z,55.10
2019-04-14T19:09:54.966Z,55.30
2019-04-14T19:12:40.224Z,55.40
2019-04-14T19:15:45.901Z,55.30
2019-04-14T19:18:28.865Z,55.50
2019-04-14T19:21:05.822Z,55.50
2019-04-14T19:23:37.972Z,55.50
2019-04-14T19:28:51.809Z,55.70
2019-04-14T19:31:24.017Z,55.90
2019-04-14T19:33:55.335Z,56.00
2019-04-14T19:36:26.778Z,56.20
2019-04-14T19:38:59.478Z,56.40
2019-04-14T19:41:36.132Z,56.60
2019-04-14T19:44:11.235Z,56.70
2019-04-14T19:46:43.139Z,57.10
2019-04-14T19:49:14.841Z,57.40
2019-04-14T19:51:46.286Z,57.90
2019-04-14T19:54:17.715Z,58.20
2019-04-14T19:56:49.413Z,58.60
2019-04-14T19:59:20.877Z,58.90
2019-04-14T20:01:52.447Z,58.90
2019-04-14T20:04:23.610Z,59.10
2019-04-14T20:06:54.867Z,59.20
2019-04-14T20:09:25.956Z,59.30
2019-04-14T20:11:57.594Z,59.50
2019-04-14T20:14:29.412Z,59.90
2019-04-14T20:17:37.964Z,60.00
2019-04-14T20:20:28.086Z,60.30
2019-04-14T20:23:24.689Z,60.50
2019-04-14T20:26:22.325Z,60.80
2019-04-14T20:28:57.238Z,60.90
2019-04-14T20:31:53.722Z,61.00
2019-04-14T20:34:26.116Z,61.40
2019-04-14T20:36:57.291Z,61.50
2019-04-14T20:39:29.835Z,61.80
2019-04-14T20:42:01.147Z,61.70
2019-04-14T20:44:36.831Z,61.60
2019-04-14T20:47:20.416Z,61.60
2019-04-14T20:52:23.567Z,61.90
2019-04-14T20:55:57.913Z,62.00
2019-04-14T20:58:30.467Z,62.10
2019-04-14T21:01:01.916Z,62.30
2019-04-14T21:03:53.217Z,62.50
2019-04-14T21:06:45.566Z,62.70
2019-04-14T21:09:37.572Z,62.80
2019-04-14T21:12:40.000Z,62.70
2019-04-14T21:15:30.277Z,62.90
2019-04-14T21:18:29.487Z,62.80
2019-04-14T21:21:05.655Z,62.80
2019-04-14T21:24:04.688Z,62.60
2019-04-14T21:26:48.737Z,62.70
2019-04-14T21:29:44.465Z,62.70
2019-04-14T21:32:28.533Z,62.80
2019-04-14T21:35:17.192Z,63.20
2019-04-14T21:38:01.033Z,63.30
2019-04-14T21:40:56.932Z,63.50
2019-04-14T21:43:28.383Z,63.60
2019-04-14T21:45:59.782Z,63.60
2019-04-14T21:48:31.192Z,63.60
2019-04-14T21:51:02.579Z,63.60
2019-04-14T21:53:33.608Z,63.70
2019-04-14T21:56:13.183Z,63.70
2019-04-14T21:59:02.561Z,63.60
2019-04-14T22:01:53.464Z,63.60
2019-04-14T22:04:44.234Z,63.60
2019-04-14T22:07:32.198Z,63.80
2019-04-14T22:10:24.417Z,63.90
2019-04-14T22:12:55.555Z,63.80
2019-04-14T22:15:26.745Z,63.80
2019-04-14T22:17:59.198Z,64.40
2019-04-14T22:20:30.255Z,63.90
2019-04-14T22:23:02.030Z,64.10
2019-04-14T22:25:33.096Z,64.30
2019-04-14T22:28:04.480Z,64.30
2019-04-14T22:30:35.760Z,64.40
2019-04-14T22:33:07.165Z,64.40
2019-04-14T22:35:38.389Z,64.30
2019-04-14T22:38:09.426Z,64.20
2019-04-14T22:40:40.657Z,64.10
2019-04-14T22:43:11.812Z,63.80
2019-04-14T22:45:43.144Z,63.40
2019-04-14T22:48:14.378Z,63.20
2019-04-14T22:50:45.588Z,62.80
2019-04-14T22:53:16.860Z,62.60
2019-04-14T22:55:48.122Z,62.40
2019-04-14T22:58:19.576Z,62.30
2019-04-14T23:00:54.830Z,62.30
2019-04-14T23:03:44.476Z,62.30
2019-04-14T23:06:24.990Z,62.30
2019-04-14T23:09:04.728Z,62.30
2019-04-14T23:12:01.535Z,62.20
2019-04-14T23:14:47.333Z,62.10
2019-04-14T23:17:41.751Z,62.00
2019-04-14T23:20:23.605Z,62.50
2019-04-14T23:23:12.293Z,63.50
2019-04-14T23:25:43.722Z,64.20
2019-04-14T23:28:14.856Z,64.70
2019-04-14T23:30:46.258Z,65.00
2019-04-14T23:33:17.480Z,65.40
2019-04-14T23:35:48.797Z,65.70
2019-04-14T23:38:20.015Z,66.30
2019-04-14T23:40:53.894Z,66.70
2019-04-14T23:43:25.102Z,66.70
2019-04-14T23:45:56.273Z,67.30
2019-04-14T23:48:27.425Z,67.90
2019-04-14T23:50:58.616Z,68.20
2019-04-14T23:53:29.834Z,68.50
2019-04-14T23:56:01.382Z,69.10
2019-04-14T23:58:32.777Z,69.50
